Time;durP1;ratioP1;P1;durP2;ratioP2;P2;SDS_P1;SDS_P2;PMS_P1;PMS_P2;Temp;Humidity;BMP_temperature;BMP_pressure;BME280_temperature;BME280_humidity;BME280_pressure;Samples;Min_cycle;Max_cycle;Signal;HPM_P1;HPM_P2
2023/07/22 00:02:22;;;;;;;3.53;2.92;;;21.10;67.80;;;;;;4975429;28;20174;-61
2023/07/22 00:04:49;;;;;;;3.28;2.97;;;21.10;67.90;;;;;;4975419;28;20106;-61
2023/07/22 00:07:15;;;;;;;3.08;2.75;;;21.00;68.00;;;;;;4975147;28;20027;-61
2023/07/22 00:09:43;;;;;;;3.50;2.85;;;21.00;68.00;;;;;;4975068;28;20034;-61
2023/07/22 00:12:09;;;;;;;3.88;3.10;;;20.90;68.20;;;;;;4975282;28;20086;-61
2023/07/22 00:14:40;;;;;;;3.15;2.80;;;20.90;68.30;;;;;;4974920;28;20026;-60
2023/07/22 00:17:05;;;;;;;4.13;3.00;;;20.90;68.50;;;;;;4975188;28;20039;-61
2023/07/22 00:19:31;;;;;;;3.90;3.05;;;20.90;68.60;;;;;;4974873;28;20042;-61
2023/07/22 00:21:57;;;;;;;2.78;2.58;;;20.80;68.60;;;;;;4975070;28;20033;-61
2023/07/22 00:24:23;;;;;;;3.38;3.08;;;20.80;68.80;;;;;;4974802;28;20033;-61
2023/07/22 00:26:49;;;;;;;3.97;3.05;;;20.80;68.90;;;;;;4974946;28;20098;-62
2023/07/22 00:29:16;;;;;;;3.35;3.05;;;20.80;69.10;;;;;;4974954;28;20110;-61
2023/07/22 00:31:41;;;;;;;3.70;3.13;;;20.80;69.10;;;;;;4974948;28;20030;-61
2023/07/22 00:34:07;;;;;;;3.63;3.10;;;20.80;69.30;;;;;;4974599;28;20126;-61
2023/07/22 00:36:33;;;;;;;4.18;3.53;;;20.70;69.40;;;;;;4974749;28;20031;-61
2023/07/22 00:38:58;;;;;;;3.80;3.45;;;20.80;69.80;;;;;;4974665;28;20031;-60
2023/07/22 00:41:24;;;;;;;5.07;4.25;;;20.70;69.90;;;;;;4974574;28;20467;-62
2023/07/22 00:43:49;;;;;;;6.25;4.25;;;20.70;70.10;;;;;;4974386;28;20034;-61
2023/07/22 00:46:15;;;;;;;4.35;3.95;;;20.70;70.30;;;;;;4974423;28;20591;-61
2023/07/22 00:48:41;;;;;;;5.40;4.45;;;20.60;70.40;;;;;;4974400;28;20074;-61
2023/07/22 00:51:07;;;;;;;5.43;4.47;;;20.60;70.50;;;;;;4974511;28;20541;-61
2023/07/22 00:53:33;;;;;;;5.70;4.15;;;20.60;70.80;;;;;;4974534;28;20027;-61
2023/07/22 00:55:58;;;;;;;5.63;4.40;;;20.60;70.80;;;;;;4974124;28;20102;-61
2023/07/22 00:58:24;;;;;;;5.25;4.00;;;20.60;70.90;;;;;;4974492;28;20046;-61
2023/07/22 01:00:50;;;;;;;4.93;4.35;;;20.60;71.00;;;;;;4974037;28;20495;-61
2023/07/22 01:03:16;;;;;;;5.20;4.15;;;20.50;71.00;;;;;;4974290;28;20023;-61
2023/07/22 01:05:41;;;;;;;4.40;4.00;;;20.50;71.10;;;;;;4974052;28;20415;-61
2023/07/22 01:08:07;;;;;;;4.50;3.83;;;20.50;71.20;;;;;;4973936;28;20035;-61
2023/07/22 01:10:33;;;;;;;4.80;3.97;;;20.50;71.30;;;;;;4973255;28;20035;-61
2023/07/22 01:12:58;;;;;;;4.57;4.18;;;20.50;71.50;;;;;;4973972;28;20471;-61
2023/07/22 01:15:28;;;;;;;5.18;4.28;;;20.50;71.50;;;;;;4973868;28;20077;-62
2023/07/22 01:17:56;;;;;;;4.55;3.95;;;20.50;71.70;;;;;;4974138;28;20038;-61
2023/07/22 01:20:22;;;;;;;4.15;3.75;;;20.50;71.80;;;;;;4973945;28;20027;-61
2023/07/22 01:22:54;;;;;;;4.00;3.50;;;20.50;71.70;;;;;;4972799;28;20027;-61
2023/07/22 01:25:23;;;;;;;4.57;4.05;;;20.40;71.80;;;;;;4969848;28;20101;-60
2023/07/22 01:27:51;;;;;;;4.45;4.00;;;20.40;71.70;;;;;;4973597;28;20085;-61
2023/07/22 01:30:16;;;;;;;3.95;3.53;;;20.40;72.00;;;;;;4973647;28;20027;-62
2023/07/22 01:32:43;;;;;;;3.80;3.40;;;20.40;72.00;;;;;;4973503;28;20042;-61
2023/07/22 01:35:09;;;;;;;3.53;3.22;;;20.40;72.10;;;;;;4973560;28;20517;-61
2023/07/22 01:37:35;;;;;;;3.72;3.40;;;20.40;72.20;;;;;;4973362;28;20415;-61
2023/07/22 01:40:01;;;;;;;4.85;3.00;;;20.40;72.30;;;;;;4973440;28;20089;-61
2023/07/22 01:42:27;;;;;;;3.40;3.10;;;20.40;72.40;;;;;;4973765;28;20026;-61
2023/07/22 01:44:53;;;;;;;3.85;3.47;;;20.40;72.40;;;;;;4973430;28;20026;-62
2023/07/22 01:47:19;;;;;;;3.60;3.10;;;20.40;72.50;;;;;;4973375;28;20027;-61
2023/07/22 01:49:45;;;;;;;3.40;3.10;;;20.30;72.30;;;;;;4973521;28;20031;-61
2023/07/22 01:52:10;;;;;;;3.20;2.90;;;20.30;72.40;;;;;;4973502;28;20030;-61
2023/07/22 01:54:36;;;;;;;3.90;3.50;;;20.30;72.40;;;;;;4973160;28;20498;-61
2023/07/22 01:57:02;;;;;;;3.97;3.53;;;20.30;72.40;;;;;;4972956;28;20090;-61
2023/07/22 01:59:27;;;;;;;5.68;3.03;;;20.30;72.50;;;;;;4973025;28;20077;-62
2023/07/22 02:01:53;;;;;;;5.07;3.05;;;20.30;72.40;;;;;;4973060;28;20119;-61
2023/07/22 02:04:18;;;;;;;3.35;3.05;;;20.30;72.70;;;;;;4973295;28;20471;-62
2023/07/22 02:06:44;;;;;;;3.33;3.03;;;20.30;72.50;;;;;;4973022;28;20035;-61
2023/07/22 02:09:13;;;;;;;3.40;3.10;;;20.20;72.60;;;;;;4972912;28;20031;-61
2023/07/22 02:11:38;;;;;;;3.40;3.10;;;20.20;72.70;;;;;;4973078;28;20109;-61
2023/07/22 02:14:06;;;;;;;3.67;2.88;;;20.20;72.90;;;;;;4972774;28;20166;-61
2023/07/22 02:16:36;;;;;;;3.90;3.28;;;20.20;72.90;;;;;;4973044;28;20110;-61
2023/07/22 02:19:03;;;;;;;4.53;3.13;;;20.20;72.90;;;;;;4972720;28;20543;-61
2023/07/22 02:21:29;;;;;;;3.38;2.95;;;20.20;72.90;;;;;;4972802;28;20023;-61
2023/07/22 02:23:54;;;;;;;3.40;3.10;;;20.20;72.90;;;;;;4972975;28;20029;-61
2023/07/22 02:26:20;;;;;;;4.38;3.33;;;20.20;73.00;;;;;;4972116;28;20034;-61
2023/07/22 02:28:46;;;;;;;5.25;3.50;;;20.20;73.00;;;;;;4971686;28;20027;-61
2023/07/22 02:31:12;;;;;;;3.80;2.83;;;20.20;73.00;;;;;;4972760;28;20387;-61
2023/07/22 02:33:38;;;;;;;3.72;3.10;;;20.20;73.00;;;;;;4972525;28;20038;-61
2023/07/22 02:36:04;;;;;;;4.13;3.30;;;20.20;73.10;;;;;;4972599;28;20031;-61
2023/07/22 02:38:30;;;;;;;3.15;2.85;;;20.20;73.10;;;;;;4972787;28;20110;-61
2023/07/22 02:41:03;;;;;;;3.42;3.08;;;20.20;73.00;;;;;;4972609;28;20023;-62
2023/07/22 02:43:28;;;;;;;3.40;3.10;;;20.30;73.00;;;;;;4972821;28;20555;-61
2023/07/22 02:45:55;;;;;;;3.10;2.80;;;20.30;73.10;;;;;;4972449;28;20046;-61
2023/07/22 02:48:20;;;;;;;3.15;2.85;;;20.30;73.00;;;;;;4972418;28;20019;-61
2023/07/22 02:50:46;;;;;;;3.58;3.08;;;20.30;72.90;;;;;;4972368;28;20027;-61
2023/07/22 02:53:12;;;;;;;3.17;2.88;;;20.40;72.90;;;;;;4972349;28;20088;-61
2023/07/22 02:55:37;;;;;;;3.35;3.05;;;20.40;72.70;;;;;;4972535;28;20038;-62
2023/07/22 02:58:03;;;;;;;3.72;2.97;;;20.50;72.70;;;;;;4972143;28;20054;-61
2023/07/22 03:00:29;;;;;;;3.40;3.10;;;20.50;72.60;;;;;;4972418;28;20031;-61
2023/07/22 03:03:02;;;;;;;4.00;3.08;;;20.60;72.60;;;;;;4972576;28;20037;-61
2023/07/22 03:05:28;;;;;;;4.40;3.47;;;20.60;72.50;;;;;;4972658;28;20031;-61
2023/07/22 03:07:54;;;;;;;3.20;2.90;;;20.70;72.50;;;;;;4972495;28;20103;-62
2023/07/22 03:10:20;;;;;;;3.75;3.38;;;20.80;72.40;;;;;;4972329;28;20594;-62
2023/07/22 03:12:47;;;;;;;3.33;2.88;;;20.80;72.20;;;;;;4972350;28;20035;-62
2023/07/22 03:15:12;;;;;;;2.90;2.70;;;20.90;72.00;;;;;;4972490;28;20397;-61
2023/07/22 03:17:41;;;;;;;3.45;3.08;;;21.00;71.70;;;;;;4972135;28;20102;-61
2023/07/22 03:20:14;;;;;;;5.43;3.22;;;21.00;71.50;;;;;;4972256;28;20094;-61
2023/07/22 03:22:41;;;;;;;4.10;3.20;;;21.00;71.30;;;;;;4972418;28;20031;-61
2023/07/22 03:25:11;;;;;;;3.53;3.08;;;21.10;71.30;;;;;;4970113;28;20054;-60
2023/07/22 03:27:38;;;;;;;3.17;2.88;;;21.10;71.20;;;;;;4972154;28;20071;-61
2023/07/22 03:30:07;;;;;;;5.28;3.30;;;21.20;71.30;;;;;;4972486;28;20027;-62
2023/07/22 03:32:33;;;;;;;3.50;3.20;;;21.20;71.10;;;;;;4973581;28;20471;-61
2023/07/22 03:34:59;;;;;;;4.80;3.60;;;21.20;70.90;;;;;;4975894;28;20031;-62
2023/07/22 03:37:24;;;;;;;3.83;3.25;;;21.30;70.80;;;;;;4975761;28;20035;-61
2023/07/22 03:39:50;;;;;;;4.55;3.40;;;21.40;70.70;;;;;;4974280;28;20027;-62
2023/07/22 03:42:16;;;;;;;3.58;3.20;;;21.40;70.60;;;;;;4975741;28;20026;-62
2023/07/22 03:44:42;;;;;;;4.63;3.38;;;21.50;70.70;;;;;;4974131;28;20030;-62
2023/07/22 03:47:07;;;;;;;5.80;3.63;;;21.70;70.80;;;;;;4973394;28;20026;-62
2023/07/22 03:49:33;;;;;;;4.95;3.30;;;21.80;71.00;;;;;;4973793;28;20026;-60
2023/07/22 03:51:59;;;;;;;3.40;2.97;;;22.10;70.90;;;;;;4973694;28;20131;-63
2023/07/22 03:54:24;;;;;;;3.53;2.90;;;22.40;70.70;;;;;;4973448;28;20398;-62
2023/07/22 03:56:50;;;;;;;3.72;3.15;;;22.60;69.70;;;;;;4973245;28;20181;-62
2023/07/22 03:59:15;;;;;;;2.85;2.53;;;22.90;68.90;;;;;;4973364;28;20561;-63
2023/07/22 04:01:41;;;;;;;3.42;2.95;;;23.00;68.20;;;;;;4974354;28;20026;-62
2023/07/22 04:04:07;;;;;;;3.47;3.17;;;23.20;67.50;;;;;;4975240;28;20034;-62
2023/07/22 04:06:32;;;;;;;3.58;3.28;;;23.30;67.00;;;;;;4975114;28;20033;-62
2023/07/22 04:09:00;;;;;;;3.20;2.92;;;23.40;66.60;;;;;;4975148;28;20062;-62
2023/07/22 04:11:26;;;;;;;3.78;3.25;;;23.60;66.50;;;;;;4974845;28;20073;-63
2023/07/22 04:13:52;;;;;;;4.57;3.40;;;24.00;66.20;;;;;;4975043;28;20030;-62
2023/07/22 04:16:18;;;;;;;4.57;3.33;;;24.60;65.80;;;;;;4975181;28;20129;-63
2023/07/22 04:18:43;;;;;;;5.18;3.00;;;25.30;64.90;;;;;;4974830;28;20462;-64
2023/07/22 04:21:09;;;;;;;4.65;3.50;;;26.00;64.00;;;;;;4974925;28;20066;-63
2023/07/22 04:23:34;;;;;;;4.90;3.53;;;26.60;63.20;;;;;;4974786;28;20057;-62
2023/07/22 04:26:04;;;;;;;4.03;3.10;;;27.30;62.20;;;;;;4974843;28;20023;-62
2023/07/22 04:28:30;;;;;;;4.72;3.85;;;28.00;61.40;;;;;;4975259;28;20027;-61
2023/07/22 04:30:58;;;;;;;5.03;3.70;;;28.70;60.40;;;;;;4975008;28;20034;-63
2023/07/22 04:33:24;;;;;;;4.22;3.67;;;29.30;59.10;;;;;;4974792;28;20372;-63
2023/07/22 04:35:52;;;;;;;4.32;3.90;;;29.70;57.80;;;;;;4974957;28;20381;-63
2023/07/22 04:38:18;;;;;;;5.55;4.00;;;29.70;56.70;;;;;;4974782;28;20027;-62
2023/07/22 04:40:44;;;;;;;5.25;3.60;;;29.50;56.20;;;;;;4974390;28;20475;-62
2023/07/22 04:43:09;;;;;;;5.22;3.47;;;29.00;55.90;;;;;;4974302;28;20157;-63
2023/07/22 04:45:35;;;;;;;5.72;3.50;;;28.40;56.10;;;;;;4973635;28;20023;-63
2023/07/22 04:48:02;;;;;;;6.07;3.40;;;27.90;56.70;;;;;;4974399;28;20049;-63
2023/07/22 04:50:28;;;;;;;5.88;4.15;;;27.50;57.20;;;;;;4974155;28;20085;-62
2023/07/22 04:52:55;;;;;;;5.75;3.80;;;27.00;57.70;;;;;;4974395;28;20034;-62
2023/07/22 04:55:22;;;;;;;6.57;3.88;;;26.70;58.30;;;;;;4974654;28;20125;-62
2023/07/22 04:57:48;;;;;;;4.32;3.42;;;26.30;59.00;;;;;;4974128;28;20059;-62
2023/07/22 05:00:16;;;;;;;4.47;3.50;;;26.00;59.60;;;;;;4974111;28;20395;-63
2023/07/22 05:02:45;;;;;;;5.15;3.40;;;25.80;60.30;;;;;;4956798;28;20540;-62
2023/07/22 05:05:12;;;;;;;5.03;3.53;;;25.60;60.70;;;;;;4974392;28;20085;-62
2023/07/22 05:07:37;;;;;;;4.93;3.40;;;25.30;61.30;;;;;;4972891;28;20141;-62
2023/07/22 05:10:03;;;;;;;6.63;3.60;;;25.20;61.80;;;;;;4972244;28;20520;-62
2023/07/22 05:12:29;;;;;;;5.40;3.70;;;25.00;62.20;;;;;;4972896;28;20046;-62
2023/07/22 05:14:54;;;;;;;4.88;3.55;;;24.80;62.50;;;;;;4973230;28;20027;-62
2023/07/22 05:17:20;;;;;;;5.47;3.75;;;24.70;62.90;;;;;;4973178;28;20030;-62
2023/07/22 05:19:46;;;;;;;7.18;3.92;;;24.60;63.00;;;;;;4972927;28;20062;-62
2023/07/22 05:22:11;;;;;;;4.30;3.47;;;24.60;63.30;;;;;;4973254;28;20105;-63
2023/07/22 05:24:37;;;;;;;6.03;3.70;;;24.50;63.90;;;;;;4971620;28;20034;-62
2023/07/22 05:27:03;;;;;;;5.82;3.95;;;24.50;63.90;;;;;;4973349;28;20027;-62
2023/07/22 05:29:28;;;;;;;4.00;3.30;;;24.50;63.90;;;;;;4973581;28;20037;-62
2023/07/22 05:31:54;;;;;;;6.25;3.42;;;24.50;63.70;;;;;;4956412;28;20031;-62
2023/07/22 05:34:20;;;;;;;4.85;2.88;;;24.40;63.20;;;;;;4973473;28;20372;-62
2023/07/22 05:36:45;;;;;;;3.90;3.15;;;24.40;63.00;;;;;;4973609;28;20046;-62
2023/07/22 05:39:11;;;;;;;4.38;3.58;;;24.40;62.90;;;;;;4973259;28;20034;-62
2023/07/22 05:41:36;;;;;;;4.03;3.42;;;24.30;62.80;;;;;;4973685;28;20031;-62
2023/07/22 05:44:02;;;;;;;4.57;3.45;;;24.30;62.90;;;;;;4973294;28;20069;-62
2023/07/22 05:46:28;;;;;;;4.13;3.10;;;24.30;62.90;;;;;;4973392;28;20510;-62
2023/07/22 05:48:54;;;;;;;4.35;3.28;;;24.20;63.00;;;;;;4973516;28;20113;-62
2023/07/22 05:51:19;;;;;;;4.45;3.33;;;24.20;63.20;;;;;;4971501;28;20043;-62
2023/07/22 05:53:45;;;;;;;3.92;3.15;;;24.10;63.20;;;;;;4973625;28;20472;-62
2023/07/22 05:56:11;;;;;;;4.88;3.67;;;24.10;63.50;;;;;;4972777;28;20034;-62
2023/07/22 05:58:36;;;;;;;5.18;3.58;;;24.10;63.60;;;;;;4972887;28;20066;-62
2023/07/22 06:01:02;;;;;;;4.13;3.22;;;24.10;63.80;;;;;;4972516;28;20026;-61
2023/07/22 06:03:28;;;;;;;3.70;3.20;;;24.10;64.30;;;;;;4971642;28;20522;-61
2023/07/22 06:05:53;;;;;;;5.15;3.60;;;24.10;64.10;;;;;;4971080;28;20107;-62
2023/07/22 06:08:19;;;;;;;6.13;3.22;;;24.10;64.00;;;;;;4971334;28;20027;-61
2023/07/22 06:10:45;;;;;;;4.30;3.58;;;24.20;64.00;;;;;;4971451;28;20029;-62
2023/07/22 06:13:11;;;;;;;4.20;3.30;;;24.20;64.10;;;;;;4971307;28;20027;-61
2023/07/22 06:15:36;;;;;;;4.28;3.30;;;24.20;64.20;;;;;;4971525;28;20029;-61
2023/07/22 06:18:02;;;;;;;6.47;3.97;;;24.30;64.20;;;;;;4973097;28;20032;-62
2023/07/22 06:20:28;;;;;;;4.30;3.90;;;24.30;64.10;;;;;;4971228;28;20506;-61
2023/07/22 06:22:54;;;;;;;5.15;4.18;;;24.40;64.20;;;;;;4971373;28;20030;-62
2023/07/22 06:25:20;;;;;;;6.25;4.82;;;24.40;64.60;;;;;;4971672;28;20499;-62
2023/07/22 06:27:46;;;;;;;15.88;10.13;;;24.30;64.70;;;;;;4972546;28;20034;-62
2023/07/22 06:30:12;;;;;;;10.07;7.47;;;24.30;64.80;;;;;;4972359;28;20544;-62
2023/07/22 06:32:38;;;;;;;21.92;11.77;;;24.30;65.10;;;;;;4972304;28;20387;-62
2023/07/22 06:35:05;;;;;;;19.65;11.30;;;24.30;65.10;;;;;;4972413;28;20031;-62
2023/07/22 06:37:30;;;;;;;23.50;14.50;;;24.30;65.20;;;;;;4972517;28;20106;-62
2023/07/22 06:39:56;;;;;;;26.92;14.85;;;24.20;65.70;;;;;;4972577;28;20150;-62
2023/07/22 06:42:22;;;;;;;25.58;13.98;;;24.20;66.10;;;;;;4973233;28;20030;-62
2023/07/22 06:44:47;;;;;;;22.08;14.30;;;24.10;66.70;;;;;;4972541;28;20372;-61
2023/07/22 06:47:13;;;;;;;22.10;14.45;;;24.00;68.10;;;;;;4972827;28;20035;-62
2023/07/22 06:49:41;;;;;;;18.27;12.93;;;24.00;67.90;;;;;;4972621;28;20045;-61
2023/07/22 06:52:07;;;;;;;12.77;8.43;;;23.90;68.10;;;;;;4972395;28;20022;-61
2023/07/22 06:54:34;;;;;;;10.02;6.65;;;23.90;68.30;;;;;;4972543;28;20027;-62
2023/07/22 06:56:59;;;;;;;10.27;5.18;;;23.80;68.50;;;;;;4972442;28;20051;-61
2023/07/22 06:59:26;;;;;;;7.20;4.75;;;23.70;68.70;;;;;;4972290;28;20556;-62
2023/07/22 07:01:52;;;;;;;6.43;4.25;;;23.70;69.00;;;;;;4972698;28;20378;-62
2023/07/22 07:04:17;;;;;;;6.40;4.40;;;23.60;69.40;;;;;;4972565;28;20027;-62
2023/07/22 07:06:43;;;;;;;4.20;3.60;;;23.50;69.70;;;;;;4972446;28;20873;-62
2023/07/22 07:09:09;;;;;;;5.53;4.03;;;23.50;70.00;;;;;;4976153;28;20483;-61
2023/07/22 07:11:35;;;;;;;3.80;3.42;;;23.50;70.10;;;;;;4976086;28;20038;-62
2023/07/22 07:14:00;;;;;;;5.38;3.55;;;23.40;70.20;;;;;;4976370;28;20038;-61
2023/07/22 07:16:28;;;;;;;3.97;3.58;;;23.40;70.50;;;;;;4976353;28;20035;-62
2023/07/22 07:18:55;;;;;;;6.32;4.10;;;23.30;70.70;;;;;;4976249;28;20034;-61
2023/07/22 07:21:21;;;;;;;4.75;4.15;;;23.30;71.00;;;;;;4976110;28;20504;-61
2023/07/22 07:23:47;;;;;;;4.90;4.20;;;23.30;71.30;;;;;;4975945;28;20023;-60
2023/07/22 07:26:13;;;;;;;4.43;3.90;;;23.40;71.60;;;;;;4973612;28;20023;-61
2023/07/22 07:28:39;;;;;;;4.35;3.55;;;23.40;71.80;;;;;;4975381;28;20026;-61
2023/07/22 07:31:05;;;;;;;5.43;4.05;;;23.40;71.70;;;;;;4976058;28;20418;-62
2023/07/22 07:33:31;;;;;;;4.65;4.18;;;23.40;71.50;;;;;;4975688;28;20031;-61
2023/07/22 07:35:57;;;;;;;5.63;4.25;;;23.40;71.60;;;;;;4974805;28;20030;-62
2023/07/22 07:38:22;;;;;;;4.43;4.00;;;23.40;71.60;;;;;;4975233;28;20471;-62
2023/07/22 07:41:12;;;;;;;4.90;4.50;;;23.40;72.00;;;;;;4975523;28;20045;-61
2023/07/22 07:43:39;;;;;;;4.30;3.90;;;23.40;72.20;;;;;;4974224;28;20041;-61
2023/07/22 07:46:17;;;;;;;4.50;4.10;;;23.40;72.30;;;;;;4974401;28;20039;-61
2023/07/22 07:48:44;;;;;;;4.50;4.10;;;23.40;72.40;;;;;;4974717;28;20019;-62
2023/07/22 07:51:11;;;;;;;4.60;4.20;;;23.30;72.60;;;;;;4974986;28;20096;-62
2023/07/22 07:53:37;;;;;;;5.13;4.63;;;23.30;72.70;;;;;;4974445;28;20033;-61
2023/07/22 07:56:03;;;;;;;4.93;4.53;;;23.30;73.00;;;;;;4974301;28;20023;-61
2023/07/22 07:58:29;;;;;;;10.90;8.10;;;23.20;73.00;;;;;;4974553;28;20081;-62
2023/07/22 08:00:54;;;;;;;9.30;7.47;;;23.20;73.10;;;;;;4975419;28;20105;-61
2023/07/22 08:03:20;;;;;;;6.57;5.88;;;23.20;73.30;;;;;;4975250;28;20416;-61
2023/07/22 08:05:46;;;;;;;6.15;5.30;;;23.20;73.60;;;;;;4975211;28;20025;-62
2023/07/22 08:08:11;;;;;;;5.85;5.03;;;23.10;73.70;;;;;;4975187;28;20033;-61
2023/07/22 08:10:38;;;;;;;5.43;4.93;;;23.10;73.90;;;;;;4975113;28;20483;-62
2023/07/22 08:13:04;;;;;;;5.32;4.75;;;23.10;74.20;;;;;;4975241;28;20038;-59
2023/07/22 08:15:30;;;;;;;5.05;4.55;;;23.00;74.10;;;;;;4974972;28;20472;-61
2023/07/22 08:17:56;;;;;;;4.50;4.10;;;23.00;74.00;;;;;;4974785;28;20038;-62
2023/07/22 08:20:21;;;;;;;5.00;4.50;;;23.00;74.20;;;;;;4975010;28;20499;-62
2023/07/22 08:22:47;;;;;;;4.68;4.20;;;22.90;75.10;;;;;;4975160;28;20058;-62
2023/07/22 08:25:13;;;;;;;4.90;4.38;;;22.90;74.70;;;;;;4975353;28;20031;-62
2023/07/22 08:27:38;;;;;;;5.20;4.68;;;22.90;74.90;;;;;;4974832;28;20042;-62
2023/07/22 08:30:05;;;;;;;4.90;4.40;;;22.90;75.20;;;;;;4974792;28;20114;-62
2023/07/22 08:32:30;;;;;;;4.68;4.28;;;22.90;75.10;;;;;;4974237;28;20491;-61
2023/07/22 08:34:56;;;;;;;5.40;4.32;;;22.80;75.10;;;;;;4974893;28;20109;-62
2023/07/22 08:37:22;;;;;;;4.47;4.07;;;22.80;75.40;;;;;;4974575;28;20490;-62
2023/07/22 08:39:47;;;;;;;4.97;4.47;;;22.80;75.60;;;;;;4974814;28;20062;-61
2023/07/22 08:42:14;;;;;;;9.52;5.38;;;22.70;75.70;;;;;;4974907;28;20038;-62
2023/07/22 08:44:44;;;;;;;5.45;4.95;;;22.70;76.00;;;;;;4974517;28;20137;-62
2023/07/22 08:47:20;;;;;;;5.80;5.10;;;22.70;76.20;;;;;;4974782;28;20368;-62
2023/07/22 08:49:50;;;;;;;4.97;4.50;;;22.60;76.50;;;;;;4974799;28;20371;-61
2023/07/22 08:52:17;;;;;;;5.43;4.93;;;22.60;76.50;;;;;;4974277;28;20491;-62
2023/07/22 08:54:44;;;;;;;5.40;4.90;;;22.60;76.60;;;;;;4973666;28;20027;-62
2023/07/22 08:57:11;;;;;;;6.25;5.65;;;22.60;77.00;;;;;;4972280;28;20055;-62
2023/07/22 08:59:38;;;;;;;4.97;4.47;;;22.60;77.20;;;;;;4972510;28;20035;-61
2023/07/22 09:02:05;;;;;;;5.30;4.80;;;22.60;77.30;;;;;;4973391;28;20137;-62
2023/07/22 09:04:30;;;;;;;4.80;4.40;;;22.60;77.30;;;;;;4973026;28;20098;-62
2023/07/22 09:06:57;;;;;;;5.20;4.70;;;22.60;77.30;;;;;;4972869;28;20174;-62
2023/07/22 09:09:24;;;;;;;5.07;4.57;;;22.50;77.50;;;;;;4972488;28;20032;-62
2023/07/22 09:11:52;;;;;;;4.97;4.47;;;22.50;77.50;;;;;;4972118;28;20059;-62
2023/07/22 09:14:19;;;;;;;4.63;4.15;;;22.50;77.20;;;;;;4972202;28;20038;-62
2023/07/22 09:16:45;;;;;;;5.05;4.55;;;22.50;77.50;;;;;;4960046;28;20371;-62
2023/07/22 09:19:11;;;;;;;4.85;4.35;;;22.50;77.90;;;;;;4952235;29;20039;-62
2023/07/22 09:21:37;;;;;;;5.25;4.75;;;22.50;78.00;;;;;;4953740;29;20035;-62
2023/07/22 09:24:23;;;;;;;7.00;6.03;;;22.50;77.80;;;;;;4954124;29;20089;-61
2023/07/22 09:26:49;;;;;;;12.10;8.80;;;22.50;77.50;;;;;;4960904;28;20026;-62
2023/07/22 09:29:15;;;;;;;23.50;14.02;;;22.50;77.60;;;;;;4973698;28;20037;-62
2023/07/22 09:31:54;;;;;;;22.92;14.82;;;22.40;77.50;;;;;;4973066;28;20106;-62
2023/07/22 09:34:20;;;;;;;17.73;12.90;;;22.30;77.60;;;;;;4971890;28;20116;-62
2023/07/22 09:36:53;;;;;;;20.33;14.00;;;22.20;77.90;;;;;;4973678;28;20079;-62
2023/07/22 09:39:19;;;;;;;18.10;12.60;;;22.20;78.10;;;;;;4973188;28;20023;-62
2023/07/22 09:41:45;;;;;;;15.95;12.15;;;22.10;78.40;;;;;;4973421;28;20023;-62
2023/07/22 09:44:12;;;;;;;15.77;10.90;;;22.10;78.50;;;;;;4973065;28;20143;-62
2023/07/22 09:46:38;;;;;;;14.23;10.45;;;22.10;78.50;;;;;;4973282;28;20026;-61
2023/07/22 09:49:05;;;;;;;13.23;9.63;;;22.10;78.80;;;;;;4972921;28;20035;-61
2023/07/22 09:51:39;;;;;;;18.35;13.50;;;22.10;79.30;;;;;;4972384;28;20039;-62
2023/07/22 09:54:05;;;;;;;16.25;11.85;;;22.10;79.60;;;;;;4972989;28;20038;-62
2023/07/22 09:56:32;;;;;;;13.88;10.50;;;22.10;79.90;;;;;;4973125;28;20395;-62
2023/07/22 09:59:05;;;;;;;10.63;8.65;;;22.10;80.50;;;;;;4973140;28;20039;-62
2023/07/22 10:01:32;;;;;;;10.65;8.55;;;22.10;80.60;;;;;;4973359;28;20038;-62
2023/07/22 10:03:58;;;;;;;9.93;8.45;;;22.10;80.80;;;;;;4973305;28;20038;-61
2023/07/22 10:06:27;;;;;;;16.70;10.88;;;22.10;81.30;;;;;;4971461;28;20570;-62
2023/07/22 10:08:55;;;;;;;13.45;10.52;;;22.20;81.40;;;;;;4973111;28;20030;-62
2023/07/22 10:11:22;;;;;;;17.38;11.57;;;22.20;81.20;;;;;;4972905;28;20022;-62
2023/07/22 10:13:48;;;;;;;15.93;12.05;;;22.20;81.10;;;;;;4972726;28;20483;-61
2023/07/22 10:16:16;;;;;;;16.35;10.73;;;22.20;81.00;;;;;;4972676;28;20082;-61
2023/07/22 10:18:43;;;;;;;13.63;10.18;;;22.20;81.10;;;;;;4973129;28;20049;-61
2023/07/22 10:21:09;;;;;;;10.40;8.40;;;22.20;81.20;;;;;;4973039;28;20041;-62
2023/07/22 10:23:36;;;;;;;10.10;7.80;;;22.20;81.00;;;;;;4972402;28;20026;-61
2023/07/22 10:26:03;;;;;;;9.45;7.00;;;22.20;81.00;;;;;;4971593;28;20027;-62
2023/07/22 10:28:29;;;;;;;6.93;6.03;;;22.20;81.20;;;;;;4970966;28;20019;-62
2023/07/22 10:30:56;;;;;;;6.20;5.60;;;22.20;81.10;;;;;;4972750;28;20487;-61
2023/07/22 10:33:23;;;;;;;5.85;4.97;;;22.20;80.60;;;;;;4972123;28;20570;-60
2023/07/22 10:36:13;;;;;;;5.90;5.30;;;22.20;80.70;;;;;;4972112;28;20026;-62
2023/07/22 10:38:39;;;;;;;5.85;5.25;;;22.10;80.80;;;;;;4972401;28;20026;-61
2023/07/22 10:41:18;;;;;;;5.88;5.28;;;22.10;81.20;;;;;;4971557;28;20395;-61
2023/07/22 10:43:59;;;;;;;5.47;4.82;;;22.10;81.50;;;;;;4971746;28;20027;-61
2023/07/22 10:46:34;;;;;;;6.28;5.20;;;22.00;81.60;;;;;;4972300;28;20426;-61
2023/07/22 10:49:16;;;;;;;7.20;5.80;;;22.00;81.90;;;;;;4972180;28;20023;-63
2023/07/22 10:51:48;;;;;;;10.38;7.10;;;22.00;81.70;;;;;;4972178;28;20445;-61
2023/07/22 10:54:14;;;;;;;11.48;7.65;;;21.90;80.90;;;;;;4972421;28;20046;-62
2023/07/22 10:56:44;;;;;;;11.05;7.45;;;21.90;80.60;;;;;;4972305;28;20011;-62
2023/07/22 10:59:13;;;;;;;11.55;8.48;;;21.80;80.30;;;;;;4972663;28;20383;-62
2023/07/22 11:01:45;;;;;;;13.80;7.88;;;21.80;80.40;;;;;;4972416;28;20090;-62
2023/07/22 11:04:30;;;;;;;12.93;8.45;;;21.70;80.00;;;;;;4972581;28;20027;-62
2023/07/22 11:06:56;;;;;;;14.07;7.75;;;21.70;79.90;;;;;;4970225;28;20030;-62
2023/07/22 11:09:34;;;;;;;15.98;8.57;;;21.60;80.00;;;;;;4972498;28;20081;-62
2023/07/22 11:12:12;;;;;;;10.50;7.18;;;21.40;79.70;;;;;;4972277;28;20089;-62
2023/07/22 11:14:49;;;;;;;6.97;5.90;;;21.30;80.20;;;;;;4972453;28;20479;-62
2023/07/22 11:17:15;;;;;;;7.70;5.20;;;21.30;80.70;;;;;;4972265;28;20023;-62
2023/07/22 11:19:41;;;;;;;5.05;4.30;;;21.10;80.90;;;;;;4971653;28;20042;-62
2023/07/22 11:22:07;;;;;;;5.13;4.63;;;21.10;81.30;;;;;;4970355;28;20026;-62
2023/07/22 11:24:36;;;;;;;5.70;5.00;;;21.10;81.40;;;;;;4972054;28;20038;-62
2023/07/22 11:27:06;;;;;;;5.10;4.60;;;21.00;81.40;;;;;;4972212;28;20027;-62
2023/07/22 11:29:32;;;;;;;5.03;4.53;;;21.00;81.90;;;;;;4972097;28;20383;-62
2023/07/22 11:31:58;;;;;;;5.00;4.50;;;20.90;82.00;;;;;;4971928;28;20039;-62
2023/07/22 11:34:25;;;;;;;4.78;4.32;;;20.90;82.50;;;;;;4972002;28;20038;-62
2023/07/22 11:36:52;;;;;;;5.45;4.95;;;20.90;83.00;;;;;;4972024;28;20038;-62
2023/07/22 11:39:23;;;;;;;4.60;4.15;;;20.90;83.20;;;;;;4972097;28;20053;-61
2023/07/22 11:41:50;;;;;;;5.40;4.90;;;20.90;83.60;;;;;;4971926;28;20039;-60
2023/07/22 11:44:18;;;;;;;4.88;4.38;;;20.90;83.70;;;;;;4972099;28;20059;-62
2023/07/22 11:46:53;;;;;;;5.25;4.75;;;21.00;83.70;;;;;;4971855;28;20395;-62
2023/07/22 11:49:27;;;;;;;5.30;4.80;;;21.00;83.60;;;;;;4972050;28;20062;-62
2023/07/22 11:52:17;;;;;;;5.18;4.78;;;21.00;83.50;;;;;;4971990;28;20031;-61
2023/07/22 11:54:44;;;;;;;5.40;4.90;;;21.00;83.30;;;;;;4974607;28;20376;-62
2023/07/22 11:57:21;;;;;;;6.22;5.63;;;21.00;83.80;;;;;;4975113;28;20066;-62
2023/07/22 11:59:52;;;;;;;5.93;5.43;;;21.00;83.80;;;;;;4974986;28;20050;-61
2023/07/22 12:02:19;;;;;;;5.97;5.47;;;21.00;84.00;;;;;;4974978;28;20039;-61
2023/07/22 12:05:01;;;;;;;5.30;4.80;;;21.00;84.20;;;;;;4975186;28;20615;-62
2023/07/22 12:07:31;;;;;;;5.40;4.90;;;20.90;84.40;;;;;;4974937;28;20030;-61
2023/07/22 12:10:06;;;;;;;5.95;5.35;;;20.90;84.70;;;;;;4974927;28;20043;-62
2023/07/22 12:12:53;;;;;;;5.40;4.90;;;21.00;85.00;;;;;;4975154;28;20673;-62
2023/07/22 12:15:21;;;;;;;5.32;4.82;;;21.00;85.00;;;;;;4974978;28;20030;-61
2023/07/22 12:18:03;;;;;;;5.40;4.90;;;21.00;84.90;;;;;;4975002;28;20045;-61
2023/07/22 12:20:30;;;;;;;5.05;4.55;;;21.10;84.80;;;;;;4974956;28;20054;-61
2023/07/22 12:22:57;;;;;;;5.25;4.75;;;21.10;84.80;;;;;;4974755;28;20027;-61
2023/07/22 12:25:23;;;;;;;5.30;4.80;;;21.10;85.20;;;;;;4974778;28;20065;-62
2023/07/22 12:27:49;;;;;;;5.72;5.13;;;21.10;85.10;;;;;;4974824;28;20047;-62
2023/07/22 12:30:15;;;;;;;6.00;5.40;;;21.20;85.10;;;;;;4974437;28;20061;-60
2023/07/22 12:32:41;;;;;;;5.60;5.10;;;21.20;85.10;;;;;;4973288;28;20042;-61
2023/07/22 12:35:08;;;;;;;5.32;4.88;;;21.10;84.90;;;;;;4973953;28;20478;-61
2023/07/22 12:37:34;;;;;;;5.75;4.95;;;21.10;85.30;;;;;;4974217;28;20411;-60
2023/07/22 12:39:59;;;;;;;5.20;4.70;;;21.20;85.20;;;;;;4974592;28;20545;-61
2023/07/22 12:42:25;;;;;;;5.85;4.80;;;21.20;86.00;;;;;;4973987;28;20031;-62
2023/07/22 12:44:51;;;;;;;5.10;4.60;;;21.20;85.30;;;;;;4971452;28;20027;-62
2023/07/22 12:47:17;;;;;;;6.25;5.50;;;21.30;85.50;;;;;;4972355;28;20039;-61